Time;durP1;ratioP1;P1;durP2;ratioP2;P2;SDS_P1;SDS_P2;PMS_P1;PMS_P2;Temp;Humidity;BMP_temperature;BMP_pressure;BME280_temperature;BME280_humidity;BME280_pressure;Samples;Min_cycle;Max_cycle;Signal;HPM_P1;HPM_P2
2023/10/25 00:01:07;;;;;;;10.43;6.30;;;12.60;99.90;;;;;;5020710;28;20201;-79
2023/10/25 00:03:33;;;;;;;10.57;6.23;;;12.60;99.90;;;;;;5019983;28;20215;-79
2023/10/25 00:06:00;;;;;;;10.53;6.43;;;12.60;99.90;;;;;;5019326;28;20197;-78
2023/10/25 00:08:26;;;;;;;11.87;6.67;;;12.60;99.90;;;;;;5018552;28;20243;-78
2023/10/25 00:11:01;;;;;;;9.30;5.70;;;12.60;99.90;;;;;;5012605;28;20284;-79
2023/10/25 00:13:27;;;;;;;8.63;5.33;;;12.60;99.90;;;;;;5009872;28;20300;-78
2023/10/25 00:15:52;;;;;;;11.20;6.53;;;12.60;99.90;;;;;;5018432;28;20311;-78
2023/10/25 00:18:18;;;;;;;9.98;6.05;;;12.50;99.90;;;;;;5019037;28;20216;-79
2023/10/25 00:20:43;;;;;;;9.43;5.50;;;12.60;99.90;;;;;;5020305;28;20185;-78
2023/10/25 00:23:09;;;;;;;9.43;5.93;;;12.60;99.90;;;;;;5018622;28;20228;-79
2023/10/25 00:25:35;;;;;;;10.60;6.23;;;12.60;99.90;;;;;;5021004;28;20223;-78
2023/10/25 00:28:00;;;;;;;8.60;5.38;;;12.60;99.90;;;;;;5014951;28;20299;-78
2023/10/25 00:30:26;;;;;;;9.73;6.10;;;12.60;99.90;;;;;;5018978;28;20212;-78
2023/10/25 00:32:51;;;;;;;10.57;6.30;;;12.60;99.90;;;;;;5014507;28;20184;-79
2023/10/25 00:35:17;;;;;;;9.85;6.07;;;12.60;99.90;;;;;;5020818;28;20187;-79
2023/10/25 00:37:43;;;;;;;8.13;5.72;;;12.60;99.90;;;;;;5019003;28;20212;-79
2023/10/25 00:40:08;;;;;;;9.13;6.10;;;12.60;99.90;;;;;;5009955;28;20228;-81
2023/10/25 00:42:34;;;;;;;9.30;5.93;;;12.60;99.90;;;;;;5017071;28;20247;-79
2023/10/25 00:45:00;;;;;;;6.30;5.10;;;12.60;99.90;;;;;;5015949;28;20196;-78
2023/10/25 00:47:25;;;;;;;6.67;5.07;;;12.60;99.90;;;;;;5019088;28;20275;-79
2023/10/25 00:49:51;;;;;;;9.18;5.20;;;12.60;99.90;;;;;;5016179;28;20224;-79
2023/10/25 00:52:17;;;;;;;6.75;4.65;;;12.60;99.90;;;;;;5015845;28;20216;-77
2023/10/25 00:54:43;;;;;;;7.33;5.00;;;12.50;99.90;;;;;;5020923;28;20220;-77
2023/10/25 00:57:09;;;;;;;6.37;4.90;;;12.60;99.90;;;;;;5021658;28;20218;-79
2023/10/25 00:59:35;;;;;;;5.47;4.60;;;12.50;99.90;;;;;;5016883;28;20617;-79
2023/10/25 01:02:02;;;;;;;7.15;3.60;;;12.50;99.90;;;;;;5017823;28;20212;-79
2023/10/25 01:04:29;;;;;;;5.20;3.70;;;12.50;99.90;;;;;;5017748;28;20671;-78
2023/10/25 01:06:55;;;;;;;4.97;3.57;;;12.50;99.90;;;;;;5013618;28;20209;-77
2023/10/25 01:09:21;;;;;;;6.23;3.90;;;12.50;99.90;;;;;;5007849;28;20279;-78
2023/10/25 01:11:46;;;;;;;5.67;4.00;;;12.50;99.90;;;;;;5018887;28;20235;-79
2023/10/25 01:14:12;;;;;;;5.90;3.83;;;12.50;99.90;;;;;;5019437;28;20295;-79
2023/10/25 01:16:38;;;;;;;5.90;3.70;;;12.50;99.90;;;;;;5019707;28;20219;-78
2023/10/25 01:19:03;;;;;;;6.23;3.73;;;12.50;99.90;;;;;;5021435;28;20316;-79
2023/10/25 01:21:30;;;;;;;5.03;3.83;;;12.50;99.90;;;;;;5024514;28;20211;-79
2023/10/25 01:23:55;;;;;;;5.87;4.17;;;12.50;99.90;;;;;;5020305;28;20670;-79
2023/10/25 01:26:21;;;;;;;6.33;3.47;;;12.40;99.90;;;;;;5024788;28;20172;-79
2023/10/25 01:28:47;;;;;;;5.53;4.20;;;12.40;99.90;;;;;;5013949;28;20281;-78
2023/10/25 01:31:12;;;;;;;5.93;3.65;;;12.40;99.90;;;;;;5026677;28;20295;-79
2023/10/25 01:33:38;;;;;;;5.90;4.37;;;12.40;99.90;;;;;;5016369;28;20241;-78
2023/10/25 01:36:03;;;;;;;6.00;4.17;;;12.40;99.90;;;;;;5020345;28;20276;-78
2023/10/25 01:38:29;;;;;;;6.53;4.00;;;12.40;99.90;;;;;;5021469;28;20697;-79
2023/10/25 01:40:55;;;;;;;5.97;4.13;;;12.40;99.90;;;;;;5021638;28;20223;-78
2023/10/25 01:43:21;;;;;;;5.67;4.43;;;12.50;99.90;;;;;;5020475;28;20216;-78
2023/10/25 01:45:47;;;;;;;6.35;3.95;;;12.50;99.90;;;;;;5008952;28;20220;-76
2023/10/25 01:48:12;;;;;;;6.47;4.40;;;12.50;99.90;;;;;;5016684;28;20229;-78
2023/10/25 01:50:38;;;;;;;6.40;4.90;;;12.50;99.90;;;;;;5022935;28;20203;-78
2023/10/25 01:53:03;;;;;;;6.60;4.73;;;12.50;99.90;;;;;;5022494;28;20212;-78
2023/10/25 01:55:29;;;;;;;6.30;3.93;;;12.50;99.90;;;;;;5022938;28;20212;-78
2023/10/25 01:57:55;;;;;;;6.53;4.90;;;12.40;99.90;;;;;;5019025;28;20307;-78
2023/10/25 02:00:20;;;;;;;6.60;4.77;;;12.40;99.90;;;;;;5023646;28;20208;-79
2023/10/25 02:02:46;;;;;;;10.67;6.33;;;12.50;99.90;;;;;;5022004;28;20389;-78
2023/10/25 02:05:11;;;;;;;11.23;6.33;;;12.40;99.90;;;;;;5027036;28;20685;-79
2023/10/25 02:07:37;;;;;;;13.23;7.87;;;12.40;99.90;;;;;;5022313;28;20254;-78
2023/10/25 02:10:03;;;;;;;11.33;7.87;;;12.40;99.90;;;;;;5019661;28;20727;-78
2023/10/25 02:12:29;;;;;;;13.97;7.67;;;12.40;99.90;;;;;;5010617;28;20355;-79
2023/10/25 02:14:54;;;;;;;11.30;7.33;;;12.40;99.90;;;;;;5012573;28;20250;-78
2023/10/25 02:17:20;;;;;;;12.20;7.70;;;12.40;99.90;;;;;;5035725;28;20176;-78
2023/10/25 02:19:46;;;;;;;14.13;8.57;;;12.40;99.90;;;;;;5021360;28;20247;-77
2023/10/25 02:22:12;;;;;;;12.73;7.90;;;12.30;99.90;;;;;;5021686;28;20201;-79
2023/10/25 02:24:37;;;;;;;12.90;8.37;;;12.30;99.90;;;;;;5023905;28;20702;-79
2023/10/25 02:27:03;;;;;;;15.43;9.13;;;12.30;99.90;;;;;;5017895;28;20184;-78
2023/10/25 02:29:31;;;;;;;14.13;8.60;;;12.30;99.90;;;;;;5022834;28;20287;-78
2023/10/25 02:31:57;;;;;;;13.23;8.00;;;12.20;99.90;;;;;;5019307;28;20581;-76
2023/10/25 02:34:22;;;;;;;13.10;8.27;;;12.20;99.90;;;;;;5023317;28;20206;-78
2023/10/25 02:36:48;;;;;;;15.93;9.50;;;12.30;99.90;;;;;;5021114;28;20703;-77
2023/10/25 02:39:13;;;;;;;13.63;9.23;;;12.30;99.90;;;;;;5014556;28;20228;-78
2023/10/25 02:41:39;;;;;;;16.53;9.77;;;12.30;99.90;;;;;;5013916;28;20272;-78
2023/10/25 02:44:05;;;;;;;16.87;9.27;;;12.30;99.90;;;;;;5018615;28;20221;-79
2023/10/25 02:46:30;;;;;;;17.40;10.27;;;12.30;99.90;;;;;;5017175;28;20204;-76
2023/10/25 02:48:56;;;;;;;15.70;10.07;;;12.30;99.90;;;;;;5010743;28;20303;-76
2023/10/25 02:51:22;;;;;;;16.57;10.43;;;12.20;99.90;;;;;;5019580;28;20228;-78
2023/10/25 02:53:47;;;;;;;15.40;8.80;;;12.30;99.90;;;;;;5019561;28;20781;-79
2023/10/25 02:56:13;;;;;;;15.63;10.70;;;12.20;99.90;;;;;;5019794;28;20212;-79
2023/10/25 02:58:39;;;;;;;16.23;9.73;;;12.20;99.90;;;;;;5020555;28;20208;-78
2023/10/25 03:01:05;;;;;;;14.10;10.33;;;12.10;99.90;;;;;;5020211;28;20614;-78
2023/10/25 03:03:32;;;;;;;16.27;10.53;;;12.10;99.90;;;;;;5022211;28;20292;-79
2023/10/25 03:05:58;;;;;;;16.37;9.73;;;12.00;99.90;;;;;;5020365;28;20230;-77
2023/10/25 03:08:25;;;;;;;14.30;9.37;;;12.10;99.90;;;;;;5008284;28;20213;-78
2023/10/25 03:10:51;;;;;;;14.00;9.33;;;12.10;99.90;;;;;;5017910;28;20211;-79
2023/10/25 03:13:17;;;;;;;15.23;9.77;;;12.10;99.90;;;;;;5004790;28;20205;-79
2023/10/25 03:15:42;;;;;;;13.43;8.93;;;12.10;99.90;;;;;;5013568;28;20279;-80
2023/10/25 03:18:08;;;;;;;16.63;9.57;;;12.10;99.90;;;;;;5017175;28;20692;-79
2023/10/25 03:20:34;;;;;;;14.37;9.20;;;12.10;99.90;;;;;;5020236;28;20169;-78
2023/10/25 03:23:00;;;;;;;13.00;8.73;;;12.20;99.90;;;;;;5018877;28;20215;-78
2023/10/25 03:25:26;;;;;;;13.87;8.53;;;12.10;99.90;;;;;;5014220;28;20555;-78
2023/10/25 03:27:51;;;;;;;16.37;9.73;;;12.10;99.90;;;;;;5017764;28;20254;-79
2023/10/25 03:30:17;;;;;;;14.03;8.53;;;12.10;99.90;;;;;;5006384;28;20220;-78
2023/10/25 03:32:43;;;;;;;11.17;8.17;;;12.10;99.90;;;;;;5018097;28;20187;-79
2023/10/25 03:35:10;;;;;;;12.50;8.57;;;12.10;99.90;;;;;;5018014;28;20228;-78
2023/10/25 03:37:39;;;;;;;14.23;8.47;;;12.10;99.90;;;;;;5020076;28;20216;-79
2023/10/25 03:40:09;;;;;;;13.83;8.90;;;12.10;99.90;;;;;;5018061;28;20251;-79
2023/10/25 03:42:35;;;;;;;15.77;9.57;;;12.10;99.90;;;;;;5008719;28;20217;-78
2023/10/25 03:45:01;;;;;;;14.20;8.77;;;12.10;99.90;;;;;;5013460;28;20253;-79
2023/10/25 03:47:27;;;;;;;16.57;9.60;;;12.10;99.90;;;;;;5019956;28;20252;-79
2023/10/25 03:49:53;;;;;;;17.50;9.40;;;12.10;99.90;;;;;;5020675;28;20243;-78
2023/10/25 03:52:19;;;;;;;15.80;8.70;;;12.20;99.90;;;;;;5017888;28;20209;-77
2023/10/25 03:54:44;;;;;;;16.17;10.50;;;12.20;99.90;;;;;;5014439;28;20407;-79
2023/10/25 03:57:10;;;;;;;14.83;9.93;;;12.10;99.90;;;;;;5021927;28;20208;-78
2023/10/25 03:59:35;;;;;;;13.80;8.70;;;12.10;99.90;;;;;;5021670;28;20577;-78
2023/10/25 04:02:01;;;;;;;17.70;9.43;;;12.10;99.90;;;;;;5009737;28;20228;-76
2023/10/25 04:04:27;;;;;;;16.47;9.47;;;12.00;99.90;;;;;;5009082;28;20247;-79
2023/10/25 04:06:53;;;;;;;12.97;8.97;;;12.00;99.90;;;;;;5020845;28;20250;-79
2023/10/25 04:09:19;;;;;;;14.27;9.30;;;11.90;99.90;;;;;;5016948;28;20656;-79
2023/10/25 04:11:45;;;;;;;13.67;9.00;;;11.90;99.90;;;;;;5011332;28;20209;-77
2023/10/25 04:14:10;;;;;;;13.07;8.73;;;11.80;99.90;;;;;;5016911;28;20278;-79
2023/10/25 04:16:37;;;;;;;12.63;8.43;;;11.90;99.90;;;;;;5020813;28;20780;-79
2023/10/25 04:19:02;;;;;;;12.87;8.60;;;11.80;99.90;;;;;;5018052;28;20212;-78
2023/10/25 04:21:28;;;;;;;14.53;8.53;;;11.90;99.90;;;;;;5009095;28;20225;-80
2023/10/25 04:23:53;;;;;;;12.43;8.23;;;11.70;99.90;;;;;;5017952;28;20184;-79
2023/10/25 04:26:19;;;;;;;13.97;8.83;;;11.80;99.90;;;;;;5017304;28;20208;-79
2023/10/25 04:28:45;;;;;;;12.90;8.87;;;11.70;99.90;;;;;;5017703;28;20295;-78
2023/10/25 04:31:11;;;;;;;12.87;8.73;;;11.70;99.90;;;;;;5015760;28;20299;-77
2023/10/25 04:33:38;;;;;;;12.67;8.47;;;11.70;99.90;;;;;;5000470;28;20225;-78
2023/10/25 04:36:04;;;;;;;15.50;9.50;;;11.70;99.90;;;;;;5019990;28;20189;-76
2023/10/25 04:38:31;;;;;;;13.17;8.37;;;11.70;99.90;;;;;;5015221;28;20239;-78
2023/10/25 04:40:57;;;;;;;13.50;8.27;;;11.60;99.90;;;;;;5015377;28;20298;-76
2023/10/25 04:43:23;;;;;;;14.77;9.10;;;11.60;99.90;;;;;;5016897;28;20838;-78
2023/10/25 04:45:51;;;;;;;17.73;9.90;;;11.60;99.90;;;;;;5020063;28;20228;-78
2023/10/25 04:48:17;;;;;;;12.17;8.80;;;11.60;99.90;;;;;;5017169;28;20232;-77
2023/10/25 04:50:43;;;;;;;15.80;9.87;;;11.50;99.90;;;;;;5017672;28;20180;-79
2023/10/25 04:53:08;;;;;;;17.27;10.93;;;11.50;99.90;;;;;;5011462;28;20216;-78
2023/10/25 04:55:36;;;;;;;15.97;9.07;;;11.40;99.90;;;;;;5019935;28;20215;-78
2023/10/25 04:58:02;;;;;;;14.07;9.13;;;11.40;99.90;;;;;;5024371;28;20208;-77
2023/10/25 05:00:28;;;;;;;13.67;9.03;;;11.50;99.90;;;;;;5019467;28;20214;-78
2023/10/25 05:02:55;;;;;;;13.67;9.23;;;11.50;99.90;;;;;;5023817;28;20263;-78
2023/10/25 05:05:21;;;;;;;17.23;9.57;;;11.50;99.90;;;;;;5022428;28;20731;-78
2023/10/25 05:07:47;;;;;;;13.20;8.70;;;11.40;99.90;;;;;;5023189;28;20310;-77
2023/10/25 05:10:13;;;;;;;16.23;9.97;;;11.40;99.90;;;;;;5022244;28;20904;-78
2023/10/25 05:12:44;;;;;;;15.57;8.93;;;11.40;99.90;;;;;;5010339;28;20217;-79
2023/10/25 05:15:16;;;;;;;16.50;10.13;;;11.40;99.90;;;;;;5024902;28;20220;-77
2023/10/25 05:17:44;;;;;;;13.03;8.17;;;11.40;99.90;;;;;;5019086;28;20671;-78
2023/10/25 05:20:11;;;;;;;13.47;8.90;;;11.40;99.90;;;;;;5019528;28;20217;-77
2023/10/25 05:22:39;;;;;;;14.37;8.63;;;11.40;99.90;;;;;;5022303;28;20223;-77
2023/10/25 05:25:06;;;;;;;13.17;8.27;;;11.40;99.90;;;;;;5024177;28;20675;-78
2023/10/25 05:27:33;;;;;;;15.93;9.47;;;11.30;99.90;;;;;;5022938;28;20224;-79
2023/10/25 05:30:03;;;;;;;14.20;8.60;;;11.30;99.90;;;;;;5025575;28;20215;-77
2023/10/25 05:32:30;;;;;;;15.40;9.13;;;11.30;99.90;;;;;;5019108;28;20181;-76
2023/10/25 05:34:57;;;;;;;15.63;10.33;;;11.20;99.90;;;;;;5012663;28;20217;-77
2023/10/25 05:37:23;;;;;;;13.70;9.20;;;11.20;99.90;;;;;;5016901;28;20232;-79
2023/10/25 05:39:49;;;;;;;15.97;9.33;;;11.20;99.90;;;;;;5022835;28;20686;-78
2023/10/25 05:42:19;;;;;;;14.23;9.80;;;11.20;99.90;;;;;;5020103;28;20270;-78
2023/10/25 05:44:50;;;;;;;14.67;9.27;;;11.20;99.90;;;;;;5018791;28;20777;-79
2023/10/25 05:47:17;;;;;;;16.30;9.87;;;11.20;99.90;;;;;;5023990;28;20687;-78
2023/10/25 05:49:43;;;;;;;14.13;9.07;;;11.20;99.90;;;;;;5028293;28;20711;-77
2023/10/25 05:52:10;;;;;;;12.80;9.00;;;11.10;99.90;;;;;;5020887;28;20270;-78
2023/10/25 05:54:37;;;;;;;15.20;9.13;;;11.20;99.90;;;;;;5017635;28;20220;-79
2023/10/25 05:57:04;;;;;;;15.83;9.73;;;11.20;99.90;;;;;;5012701;28;20819;-78
2023/10/25 05:59:30;;;;;;;15.50;9.93;;;11.20;99.90;;;;;;5013684;28;20204;-78
2023/10/25 06:02:08;;;;;;;15.90;9.83;;;11.20;99.90;;;;;;5022792;28;20319;-79
2023/10/25 06:04:36;;;;;;;17.63;9.57;;;11.20;99.90;;;;;;5023094;28;20236;-78
2023/10/25 06:07:02;;;;;;;20.03;10.20;;;11.20;99.90;;;;;;5020194;28;20209;-79
2023/10/25 06:09:28;;;;;;;16.00;10.00;;;11.20;99.90;;;;;;5018595;28;20220;-79
2023/10/25 06:11:54;;;;;;;21.33;10.63;;;11.20;99.90;;;;;;5022234;28;20220;-78
2023/10/25 06:14:20;;;;;;;17.77;11.00;;;11.20;99.90;;;;;;5013807;28;20236;-79
2023/10/25 06:16:46;;;;;;;15.43;10.10;;;11.20;99.90;;;;;;5017429;28;20308;-78
2023/10/25 06:19:11;;;;;;;16.53;10.13;;;11.20;99.90;;;;;;5022628;28;20211;-78
2023/10/25 06:21:37;;;;;;;17.00;10.50;;;11.20;99.90;;;;;;5020295;28;20262;-79
2023/10/25 06:24:03;;;;;;;17.17;10.87;;;11.40;99.90;;;;;;5019314;28;20180;-79
2023/10/25 06:26:28;;;;;;;18.53;11.17;;;11.40;99.90;;;;;;5021753;28;20662;-79
2023/10/25 06:28:54;;;;;;;17.83;12.23;;;11.40;99.90;;;;;;5017187;28;20229;-78
2023/10/25 06:31:20;;;;;;;18.50;10.97;;;11.40;99.90;;;;;;5020088;28;20200;-77
2023/10/25 06:33:45;;;;;;;16.23;10.73;;;11.40;99.90;;;;;;5017358;28;20205;-77
2023/10/25 06:36:11;;;;;;;18.93;11.50;;;11.40;99.90;;;;;;5023375;28;20204;-79
2023/10/25 06:38:38;;;;;;;19.43;11.10;;;11.50;99.90;;;;;;5019559;28;20299;-79
2023/10/25 06:41:04;;;;;;;20.63;12.20;;;11.50;99.90;;;;;;5020254;28;20279;-77
2023/10/25 06:43:30;;;;;;;21.83;11.87;;;11.60;99.90;;;;;;5026041;28;20302;-79
2023/10/25 06:45:59;;;;;;;20.67;12.50;;;11.60;99.90;;;;;;5021254;28;20294;-78
2023/10/25 06:48:25;;;;;;;16.83;10.83;;;11.60;99.90;;;;;;5019492;28;20220;-78
2023/10/25 06:50:51;;;;;;;18.03;11.67;;;11.60;99.90;;;;;;5022066;28;20238;-77
2023/10/25 06:53:17;;;;;;;20.43;11.30;;;11.60;99.90;;;;;;5019876;28;20177;-76
2023/10/25 06:55:43;;;;;;;18.27;10.83;;;11.60;99.90;;;;;;5021794;28;20215;-78
2023/10/25 06:58:10;;;;;;;22.23;11.57;;;11.60;99.90;;;;;;5024437;28;20228;-79
2023/10/25 07:00:37;;;;;;;16.77;10.67;;;11.60;99.90;;;;;;5027300;28;20299;-78
2023/10/25 07:03:04;;;;;;;17.67;10.43;;;11.60;99.90;;;;;;5024018;28;20185;-79
2023/10/25 07:05:30;;;;;;;17.03;11.13;;;11.60;99.90;;;;;;5011786;28;20173;-78
2023/10/25 07:07:57;;;;;;;21.03;11.73;;;11.60;99.90;;;;;;5012453;28;20212;-79
2023/10/25 07:10:23;;;;;;;17.20;10.60;;;11.60;99.90;;;;;;5015990;28;20215;-79
2023/10/25 07:12:49;;;;;;;19.23;10.67;;;11.70;99.90;;;;;;5019942;28;20209;-78
2023/10/25 07:15:16;;;;;;;19.83;11.63;;;11.70;99.90;;;;;;5019637;28;20219;-78
2023/10/25 07:17:42;;;;;;;21.83;11.07;;;11.70;99.90;;;;;;5021628;28;20209;-79
2023/10/25 07:20:09;;;;;;;20.53;10.97;;;11.70;99.90;;;;;;5023060;28;20266;-78
2023/10/25 07:22:35;;;;;;;17.63;9.97;;;11.70;99.90;;;;;;5022637;28;20213;-77
2023/10/25 07:25:01;;;;;;;20.90;10.73;;;11.70;99.90;;;;;;5023364;28;20207;-79
2023/10/25 07:27:26;;;;;;;17.77;10.97;;;11.70;99.90;;;;;;5011525;28;20220;-78
2023/10/25 07:29:52;;;;;;;19.73;10.57;;;11.70;99.90;;;;;;5013269;28;20265;-78
2023/10/25 07:32:18;;;;;;;16.90;9.93;;;11.60;99.90;;;;;;5018594;28;20196;-79
2023/10/25 07:34:43;;;;;;;16.97;10.30;;;11.70;99.90;;;;;;5020353;28;20692;-78
2023/10/25 07:37:09;;;;;;;16.60;9.67;;;11.70;99.90;;;;;;5020287;28;20204;-78
2023/10/25 07:39:35;;;;;;;16.77;9.80;;;11.80;99.90;;;;;;5020045;28;20224;-78
2023/10/25 07:42:01;;;;;;;19.77;10.93;;;12.00;99.90;;;;;;5011757;28;20554;-78
2023/10/25 07:44:28;;;;;;;17.38;10.13;;;12.20;99.90;;;;;;5014957;28;20204;-78
2023/10/25 07:46:53;;;;;;;16.23;10.25;;;12.40;99.90;;;;;;5019756;28;20220;-79
2023/10/25 07:49:19;;;;;;;14.32;9.60;;;12.60;99.90;;;;;;5019977;28;20702;-76
2023/10/25 07:51:44;;;;;;;17.85;11.05;;;12.60;99.90;;;;;;5020930;28;20293;-78
2023/10/25 07:54:10;;;;;;;16.77;9.18;;;12.50;99.90;;;;;;5019676;28;20258;-78
2023/10/25 07:56:36;;;;;;;17.65;10.25;;;12.50;99.90;;;;;;5007184;28;20174;-78
2023/10/25 07:59:02;;;;;;;18.17;10.25;;;12.40;99.90;;;;;;5024042;28;20223;-78
2023/10/25 08:01:28;;;;;;;15.55;10.25;;;12.60;99.90;;;;;;5020741;28;20213;-79
2023/10/25 08:03:54;;;;;;;16.85;9.55;;;12.60;99.90;;;;;;5011592;28;20237;-79
2023/10/25 08:06:20;;;;;;;16.65;9.25;;;12.60;99.90;;;;;;5018671;28;20586;-78
2023/10/25 08:08:45;;;;;;;15.05;8.82;;;12.70;99.90;;;;;;5019567;28;20192;-79
2023/10/25 08:11:11;;;;;;;15.95;9.77;;;12.80;99.90;;;;;;5020576;28;20200;-78
2023/10/25 08:13:38;;;;;;;10.80;7.60;;;12.80;99.90;;;;;;5019857;28;20211;-78
2023/10/25 08:16:04;;;;;;;15.63;10.15;;;13.00;99.90;;;;;;5021019;28;20204;-78
2023/10/25 08:18:31;;;;;;;14.20;8.77;;;13.20;99.90;;;;;;5011380;28;20213;-79
2023/10/25 08:20:58;;;;;;;17.08;9.43;;;13.30;99.90;;;;;;5012369;28;20185;-77
2023/10/25 08:23:24;;;;;;;13.15;8.45;;;13.40;99.90;;;;;;5020054;28;20183;-80
2023/10/25 08:25:51;;;;;;;15.63;9.35;;;13.40;99.90;;;;;;5024539;28;20563;-77
2023/10/25 08:28:17;;;;;;;14.85;8.70;;;13.40;99.90;;;;;;5028597;28;20211;-79
2023/10/25 08:30:43;;;;;;;15.23;9.00;;;13.30;99.90;;;;;;5024058;28;20219;-80
2023/10/25 08:33:10;;;;;;;12.02;8.27;;;13.30;99.90;;;;;;5017875;28;20295;-79
2023/10/25 08:35:37;;;;;;;12.57;8.50;;;13.40;99.90;;;;;;5028450;28;20186;-78
2023/10/25 08:38:03;;;;;;;13.88;7.82;;;13.50;99.90;;;;;;5027905;28;20200;-77
2023/10/25 08:40:29;;;;;;;13.00;7.75;;;13.40;99.90;;;;;;5025606;28;20201;-76
2023/10/25 08:43:01;;;;;;;13.50;8.50;;;13.30;99.90;;;;;;5015763;28;20737;-79
2023/10/25 08:45:29;;;;;;;13.45;8.52;;;13.40;99.90;;;;;;5029905;28;20261;-77
2023/10/25 08:47:55;;;;;;;13.00;8.48;;;13.40;99.90;;;;;;5032784;28;20172;-79
2023/10/25 08:50:20;;;;;;;12.82;7.93;;;13.50;99.90;;;;;;5030943;28;20216;-79
2023/10/25 08:52:50;;;;;;;14.30;8.98;;;13.60;99.90;;;;;;5032778;28;20216;-79
2023/10/25 08:55:18;;;;;;;18.00;9.15;;;13.50;99.90;;;;;;5031600;28;20205;-78
2023/10/25 08:57:44;;;;;;;13.68;8.52;;;13.70;99.90;;;;;;5023080;28;20322;-78
2023/10/25 09:00:14;;;;;;;14.30;7.97;;;13.70;99.90;;;;;;5024149;28;20284;-79
2023/10/25 09:02:39;;;;;;;11.05;7.90;;;13.80;99.90;;;;;;5022329;28;20683;-79
2023/10/25 09:05:09;;;;;;;11.32;8.02;;;13.80;99.90;;;;;;5023913;28;20260;-78
2023/10/25 09:07:36;;;;;;;12.50;8.20;;;13.70;99.90;;;;;;5017270;28;20209;-79
2023/10/25 09:10:03;;;;;;;12.35;8.02;;;13.50;99.90;;;;;;5020786;28;20308;-78
2023/10/25 09:12:32;;;;;;;14.18;7.32;;;13.40;99.90;;;;;;5026111;28;20216;-76
2023/10/25 09:14:58;;;;;;;12.95;8.75;;;13.50;99.90;;;;;;5024047;28;20180;-78
2023/10/25 09:17:24;;;;;;;11.35;7.78;;;13.20;99.90;;;;;;5026353;28;20180;-79
2023/10/25 09:19:50;;;;;;;10.95;7.05;;;13.10;99.90;;;;;;5025740;28;20213;-80
2023/10/25 09:22:27;;;;;;;10.13;7.68;;;13.10;99.90;;;;;;5025946;28;20205;-79
2023/10/25 09:25:01;;;;;;;12.43;6.75;;;13.20;99.90;;;;;;5027059;28;20652;-79
2023/10/25 09:27:28;;;;;;;8.80;6.72;;;13.20;99.90;;;;;;5021358;28;20716;-78
2023/10/25 09:30:14;;;;;;;10.30;7.18;;;13.20;99.90;;;;;;5022381;28;20204;-79
2023/10/25 09:32:40;;;;;;;11.48;7.63;;;13.20;99.90;;;;;;5013393;28;20177;-79
2023/10/25 09:35:06;;;;;;;12.85;6.95;;;13.20;99.90;;;;;;5025458;28;20205;-79
2023/10/25 09:37:32;;;;;;;10.57;6.93;;;13.10;99.90;;;;;;5022445;28;20200;-76
2023/10/25 09:39:58;;;;;;;11.70;7.47;;;13.20;99.90;;;;;;5022394;28;20270;-78
2023/10/25 09:42:26;;;;;;;10.95;7.00;;;13.20;99.90;;;;;;5025841;28;20878;-79
2023/10/25 09:44:58;;;;;;;9.60;7.13;;;13.40;99.90;;;;;;5020803;28;20181;-80
2023/10/25 09:47:30;;;;;;;11.82;7.65;;;13.40;99.90;;;;;;5025917;28;20450;-80
2023/10/25 09:50:03;;;;;;;10.68;7.28;;;13.40;99.90;;;;;;5023585;28;20596;-79
2023/10/25 09:52:31;;;;;;;11.35;7.55;;;13.40;99.90;;;;;;5016482;28;20209;-76
2023/10/25 09:55:03;;;;;;;10.40;6.95;;;13.50;99.90;;;;;;5014571;28;20200;-78
2023/10/25 09:57:30;;;;;;;11.57;6.55;;;13.50;99.90;;;;;;5021160;28;20282;-79
2023/10/25 09:59:56;;;;;;;12.50;8.18;;;13.50;99.90;;;;;;5022494;28;20707;-79
2023/10/25 10:02:46;;;;;;;10.25;6.22;;;13.60;99.90;;;;;;5022399;28;20191;-79
2023/10/25 10:05:21;;;;;;;9.38;6.63;;;13.60;99.90;;;;;;5015790;28;20358;-79
2023/10/25 10:08:05;;;;;;;10.20;6.70;;;13.70;99.90;;;;;;5023942;28;20530;-80
2023/10/25 10:10:38;;;;;;;9.23;6.72;;;13.60;99.90;;;;;;5011004;28;20751;-79
2023/10/25 10:13:17;;;;;;;10.85;6.88;;;13.60;99.90;;;;;;5021616;28;20209;-77
2023/10/25 10:16:11;;;;;;;8.02;5.80;;;13.60;99.90;;;;;;5019664;28;20224;-79
2023/10/25 10:18:38;;;;;;;9.88;5.95;;;13.50;99.90;;;;;;5024537;28;20223;-77
2023/10/25 10:21:07;;;;;;;10.48;6.35;;;13.60;99.90;;;;;;5030381;28;20181;-78
2023/10/25 10:23:39;;;;;;;11.25;6.63;;;13.60;99.90;;;;;;5027880;28;20267;-79
2023/10/25 10:26:06;;;;;;;8.77;6.15;;;13.70;99.90;;;;;;5020390;28;20633;-78
2023/10/25 10:28:47;;;;;;;9.98;5.95;;;13.80;99.90;;;;;;5007603;28;20226;-77
2023/10/25 10:31:14;;;;;;;7.40;5.78;;;13.70;99.90;;;;;;5021293;28;20208;-79
2023/10/25 10:33:49;;;;;;;9.80;6.00;;;13.80;99.90;;;;;;5018358;28;20244;-78
2023/10/25 10:36:31;;;;;;;10.73;5.88;;;13.80;99.90;;;;;;5023606;28;20207;-80
2023/10/25 10:39:16;;;;;;;13.73;6.03;;;13.80;99.90;;;;;;5024417;28;20204;-78
2023/10/25 10:41:43;;;;;;;8.38;5.28;;;13.90;99.90;;;;;;5003981;28;20186;-79
2023/10/25 10:44:09;;;;;;;11.65;4.43;;;14.10;99.90;;;;;;5024322;28;20228;-80
2023/10/25 10:46:51;;;;;;;6.43;4.80;;;14.20;99.90;;;;;;5012307;28;20691;-79
2023/10/25 10:49:20;;;;;;;8.23;4.22;;;14.30;99.90;;;;;;5012477;28;20224;-79
2023/10/25 10:51:46;;;;;;;6.75;4.60;;;14.40;99.90;;;;;;5021098;28;20314;-78
2023/10/25 10:54:11;;;;;;;5.05;4.20;;;14.30;99.90;;;;;;5015624;28;20284;-77
2023/10/25 10:56:37;;;;;;;6.70;4.75;;;14.40;99.90;;;;;;5022164;28;20267;-80
2023/10/25 10:59:03;;;;;;;8.23;5.10;;;14.40;99.90;;;;;;5017137;28;20753;-79
2023/10/25 11:01:30;;;;;;;6.82;4.43;;;14.40;99.90;;;;;;5021252;28;20287;-79
2023/10/25 11:03:59;;;;;;;8.70;4.35;;;14.50;99.90;;;;;;5020313;28;20267;-79
2023/10/25 11:06:25;;;;;;;9.95;4.63;;;14.60;99.90;;;;;;5021947;28;20235;-79
2023/10/25 11:08:52;;;;;;;8.77;4.90;;;14.70;99.90;;;;;;5016837;28;20224;-79
2023/10/25 11:11:21;;;;;;;7.18;4.05;;;14.80;99.90;;;;;;5014642;28;20207;-79
2023/10/25 11:13:50;;;;;;;6.80;4.40;;;14.90;99.90;;;;;;5020795;28;20562;-79
2023/10/25 11:16:15;;;;;;;9.27;4.10;;;14.60;99.90;;;;;;5018882;28;20292;-78
2023/10/25 11:18:41;;;;;;;6.85;4.45;;;14.50;99.90;;;;;;5017931;28;20307;-76
2023/10/25 11:21:07;;;;;;;5.28;3.30;;;14.20;99.90;;;;;;5021824;28;20215;-79
2023/10/25 11:23:32;;;;;;;6.43;4.30;;;14.20;99.90;;;;;;5018455;28;20188;-79
2023/10/25 11:25:58;;;;;;;6.00;3.60;;;14.20;99.90;;;;;;5020338;28;20209;-77
2023/10/25 11:28:25;;;;;;;6.82;3.95;;;14.20;99.90;;;;;;5024600;28;20218;-79
2023/10/25 11:30:51;;;;;;;5.43;4.10;;;14.40;99.90;;;;;;5016702;28;20344;-79
2023/10/25 11:33:17;;;;;;;6.82;3.80;;;14.40;99.90;;;;;;5021527;28;20216;-79
2023/10/25 11:35:43;;;;;;;6.63;3.63;;;14.40;99.90;;;;;;5006701;28;20174;-79
2023/10/25 11:38:10;;;;;;;8.85;3.00;;;14.40;99.90;;;;;;5017163;28;20232;-79
2023/10/25 11:40:42;;;;;;;4.28;3.20;;;14.50;99.90;;;;;;5019944;28;20287;-79
2023/10/25 11:43:08;;;;;;;8.32;3.50;;;14.70;99.90;;;;;;5018346;28;20197;-78
2023/10/25 11:45:39;;;;;;;4.93;3.80;;;14.60;99.90;;;;;;5023049;28;20647;-79
2023/10/25 11:48:06;;;;;;;8.63;3.88;;;14.70;99.90;;;;;;5021179;28;20639;-78
2023/10/25 11:50:32;;;;;;;4.25;3.28;;;14.70;99.90;;;;;;5028400;28;20199;-79
2023/10/25 11:53:00;;;;;;;8.25;3.88;;;14.70;99.90;;;;;;5020315;28;20204;-78
2023/10/25 11:55:27;;;;;;;8.02;3.67;;;14.70;99.90;;;;;;5022459;28;20212;-79
2023/10/25 11:57:53;;;;;;;6.35;3.50;;;14.70;99.90;;;;;;5004562;28;20205;-79
2023/10/25 12:00:19;;;;;;;5.55;3.78;;;14.60;99.90;;;;;;5017223;28;20206;-79
2023/10/25 12:02:45;;;;;;;5.93;3.53;;;14.50;99.90;;;;;;5017502;28;20187;-79
2023/10/25 12:05:11;;;;;;;7.93;3.22;;;14.20;99.90;;;;;;5016544;28;20208;-79
2023/10/25 12:07:37;;;;;;;3.72;3.10;;;14.10;99.90;;;;;;5019030;28;20251;-79
2023/10/25 12:10:06;;;;;;;4.50;3.25;;;13.90;99.90;;;;;;5018660;28;20408;-79
2023/10/25 12:12:32;;;;;;;3.97;2.88;;;13.90;99.90;;;;;;5009051;28;20217;-79
2023/10/25 12:14:58;;;;;;;4.40;3.17;;;13.90;99.90;;;;;;5018576;28;20181;-79
2023/10/25 12:17:23;;;;;;;3.53;2.92;;;14.00;99.90;;;;;;5020847;28;20173;-78
2023/10/25 12:19:51;;;;;;;4.20;2.80;;;14.00;99.90;;;;;;5017992;28;20271;-79
2023/10/25 12:22:18;;;;;;;6.55;3.15;;;14.10;99.90;;;;;;5019678;28;20204;-79
2023/10/25 12:24:46;;;;;;;4.97;3.30;;;14.20;99.90;;;;;;5022282;28;20593;-79
2023/10/25 12:27:12;;;;;;;8.45;3.40;;;14.30;99.90;;;;;;5022906;28;20220;-80
2023/10/25 12:29:38;;;;;;;8.13;4.25;;;14.40;99.90;;;;;;5028009;28;20238;-79
2023/10/25 12:32:04;;;;;;;4.72;3.53;;;14.50;99.90;;;;;;5021209;28;20209;-79
2023/10/25 12:34:30;;;;;;;6.95;2.33;;;14.50;99.90;;;;;;5023576;28;20208;-79
2023/10/25 12:36:55;;;;;;;3.10;2.35;;;14.50;99.90;;;;;;5023621;28;20878;-79